createdAt,value
2022-11-05T00:01:10.538Z,95205.88
2022-11-05T00:03:57.526Z,95211.22
2022-11-05T00:06:45.938Z,95215.75
2022-11-05T00:09:30.748Z,95218.56
2022-11-05T00:12:22.810Z,95228.91
2022-11-05T00:15:10.108Z,95225.91
2022-11-05T00:17:39.774Z,95223.25
2022-11-05T00:20:13.472Z,95232.06
2022-11-05T00:23:01.718Z,95236.09
2022-11-05T00:25:31.219Z,95238.53
2022-11-05T00:28:03.891Z,95240.38
2022-11-05T00:30:33.301Z,95247.09
2022-11-05T00:33:03.673Z,95247.09
2022-11-05T00:35:33.144Z,95250.94
2022-11-05T00:38:04.119Z,95258.94
2022-11-05T00:40:33.510Z,95251.53
2022-11-05T00:43:20.470Z,95252.19
2022-11-05T00:45:50.516Z,95260.50
2022-11-05T00:48:37.585Z,95264.88
2022-11-05T00:51:07.390Z,95268.84
2022-11-05T00:53:38.267Z,95277.75
2022-11-05T00:56:08.441Z,95285.25
2022-11-05T00:58:38.042Z,95282.97
2022-11-05T01:01:07.637Z,95278.69
2022-11-05T01:03:40.650Z,95277.88
2022-11-05T01:06:13.778Z,95280.97
2022-11-05T01:08:46.665Z,95272.97
2022-11-05T01:11:34.148Z,95276.91
2022-11-05T01:14:32.577Z,95276.81
2022-11-05T01:17:01.954Z,95272.63
2022-11-05T01:19:31.894Z,95275.28
2022-11-05T01:22:01.337Z,95280.72
2022-11-05T01:24:32.050Z,95283.16
2022-11-05T01:27:01.475Z,95279.91
2022-11-05T01:29:30.911Z,95279.91
2022-11-05T01:32:00.396Z,95284.34
2022-11-05T01:34:30.035Z,95283.31
2022-11-05T01:36:59.397Z,95286.22
2022-11-05T01:39:28.931Z,95292.34
2022-11-05T01:41:59.744Z,95291.47
2022-11-05T01:45:02.159Z,95294.59
2022-11-05T01:47:57.862Z,95293.81
2022-11-05T01:50:38.438Z,95291.41
2022-11-05T01:53:21.464Z,95296.47
2022-11-05T01:56:00.147Z,95286.38
2022-11-05T01:58:39.020Z,95289.59
2022-11-05T02:01:08.563Z,95286.56
2022-11-05T02:03:38.276Z,95287.13
2022-11-05T02:06:09.359Z,95291.13
2022-11-05T02:08:54.886Z,95290.03
2022-11-05T02:11:24.410Z,95287.66
2022-11-05T02:13:55.483Z,95287.34
2022-11-05T02:16:39.531Z,95288.09
2022-11-05T02:20:04.368Z,95296.47
2022-11-05T02:23:32.640Z,95293.94
2022-11-05T02:26:53.036Z,95286.75
2022-11-05T02:30:20.683Z,95289.59
2022-11-05T02:33:37.552Z,95291.84
2022-11-05T02:36:40.626Z,95290.94
2022-11-05T02:39:31.261Z,95289.09
2022-11-05T02:42:13.404Z,95287.47
2022-11-05T02:44:52.857Z,95289.31
2022-11-05T02:47:31.505Z,95296.50
2022-11-05T02:50:20.360Z,95296.19
2022-11-05T02:53:01.095Z,95294.31
2022-11-05T02:55:38.512Z,95299.19
2022-11-05T02:58:11.016Z,95300.56
2022-11-05T03:00:48.206Z,95293.81
2022-11-05T03:03:28.506Z,95297.50
2022-11-05T03:06:40.289Z,95299.22
2022-11-05T03:09:47.775Z,95308.34
2022-11-05T03:12:30.587Z,95304.38
2022-11-05T03:15:16.125Z,95305.19
2022-11-05T03:17:59.816Z,95319.91
2022-11-05T03:20:37.778Z,95317.91
2022-11-05T03:23:18.152Z,95325.56
2022-11-05T03:25:53.074Z,95335.03
2022-11-05T03:28:27.164Z,95337.94
2022-11-05T03:30:59.015Z,95339.34
2022-11-05T03:33:32.718Z,95338.75
2022-11-05T03:36:08.880Z,95346.84
2022-11-05T03:38:44.013Z,95350.34
2022-11-05T03:41:16.910Z,95351.69
2022-11-05T03:43:51.672Z,95359.53
2022-11-05T03:46:29.118Z,95366.03
2022-11-05T03:49:04.199Z,95370.63
2022-11-05T03:51:44.668Z,95379.44
2022-11-05T03:54:15.955Z,95384.56
2022-11-05T03:56:58.020Z,95382.69
2022-11-05T03:59:29.014Z,95399.03
2022-11-05T04:01:59.037Z,95389.97
2022-11-05T04:04:28.574Z,95390.56
2022-11-05T04:07:15.567Z,95399.91
2022-11-05T04:10:15.269Z,95397.56
2022-11-05T04:13:02.112Z,95397.31
2022-11-05T04:15:51.858Z,95403.31
2022-11-05T04:18:20.590Z,95410.84
2022-11-05T04:21:07.624Z,95406.66
2022-11-05T04:23:54.781Z,95409.16
2022-11-05T04:26:26.075Z,95404.94
2022-11-05T04:29:13.564Z,95407.84
2022-11-05T04:31:43.016Z,95407.38
2022-11-05T04:34:12.920Z,95402.28
2022-11-05T04:36:44.323Z,95411.09
2022-11-05T04:39:14.282Z,95405.25
2022-11-05T04:41:46.203Z,95407.84
2022-11-05T04:44:16.536Z,95414.50
2022-11-05T04:46:46.218Z,95410.22
2022-11-05T04:49:16.098Z,95417.41
2022-11-05T04:51:45.923Z,95416.84
2022-11-05T04:54:16.445Z,95424.88
2022-11-05T04:56:47.797Z,95427.28
2022-11-05T04:59:17.262Z,95424.88
2022-11-05T05:01:46.739Z,95420.34
2022-11-05T05:04:16.208Z,95429.16
2022-11-05T05:06:45.732Z,95425.44
2022-11-05T05:09:15.259Z,95426.00
2022-11-05T05:11:44.679Z,95437.50
2022-11-05T05:14:15.514Z,95444.41
2022-11-05T05:16:44.970Z,95446.13
2022-11-05T05:19:14.403Z,95449.53
2022-11-05T05:21:42.756Z,95445.00
2022-11-05T05:24:16.595Z,95447.41
2022-11-05T05:26:49.614Z,95457.63
2022-11-05T05:29:20.827Z,95460.53
2022-11-05T05:31:50.243Z,95453.91
2022-11-05T05:34:19.654Z,95456.34
2022-11-05T05:36:49.375Z,95448.31
2022-11-05T05:39:19.015Z,95452.03
2022-11-05T05:41:48.383Z,95452.84
2022-11-05T05:44:19.360Z,95448.31
2022-11-05T05:46:48.695Z,95454.47
2022-11-05T05:49:18.046Z,95454.72
2022-11-05T05:51:49.319Z,95462.47
2022-11-05T05:54:18.780Z,95471.06
2022-11-05T05:56:48.190Z,95463.06
2022-11-05T05:59:18.941Z,95471.88
2022-11-05T06:01:48.537Z,95473.75
2022-11-05T06:04:17.941Z,95471.31
2022-11-05T06:06:48.204Z,95476.66
2022-11-05T06:09:17.903Z,95474.44
2022-11-05T06:11:47.249Z,95481.06
2022-11-05T06:14:16.703Z,95487.78
2022-11-05T06:16:47.496Z,95488.13
2022-11-05T06:19:16.887Z,95495.88
2022-11-05T06:21:46.270Z,95501.22
2022-11-05T06:24:15.972Z,95509.53
2022-11-05T06:26:45.634Z,95497.31
2022-11-05T06:29:15.139Z,95507.53
2022-11-05T06:31:46.260Z,95508.81
2022-11-05T06:34:15.615Z,95517.66
2022-11-05T06:36:45.028Z,95519.28
2022-11-05T06:39:14.414Z,95517.41
2022-11-05T06:42:12.131Z,95517.41
2022-11-05T06:44:34.663Z,95524.13
2022-11-05T06:47:05.783Z,95533.19
2022-11-05T06:49:35.309Z,95534.81
2022-11-05T06:52:05.062Z,95529.81
2022-11-05T06:54:34.488Z,95524.56
2022-11-05T06:57:04.632Z,95532.09
2022-11-05T06:59:34.372Z,95534.56
2022-11-05T07:02:05.681Z,95546.66
2022-11-05T07:04:35.285Z,95550.44
2022-11-05T07:07:04.679Z,95554.75
2022-11-05T07:09:34.035Z,95550.53
2022-11-05T07:12:03.426Z,95557.59
2022-11-05T07:14:32.775Z,95563.88
2022-11-05T07:17:02.192Z,95564.47
2022-11-05T07:19:32.906Z,95566.97
2022-11-05T07:22:02.388Z,95571.84
2022-11-05T07:24:31.762Z,95575.88
2022-11-05T07:27:01.186Z,95573.28
2022-11-05T07:29:30.744Z,95577.59
2022-11-05T07:32:00.170Z,95590.75
2022-11-05T07:34:29.528Z,95596.69
2022-11-05T07:37:00.366Z,95599.94
2022-11-05T07:39:29.766Z,95604.78
2022-11-05T07:41:59.307Z,95601.63
2022-11-05T07:44:35.111Z,95606.72
2022-11-05T07:47:04.656Z,95606.97
2022-11-05T07:49:37.079Z,95610.78
2022-11-05T07:52:07.908Z,95604.38
2022-11-05T07:54:37.318Z,95609.25
2022-11-05T07:57:06.882Z,95617.03
2022-11-05T07:59:36.316Z,95615.66
2022-11-05T08:02:06.087Z,95621.50
2022-11-05T08:04:35.611Z,95625.22
2022-11-05T08:07:05.050Z,95626.84
2022-11-05T08:09:35.835Z,95626.13
2022-11-05T08:12:06.970Z,95622.53
2022-11-05T08:14:36.381Z,95629.53
2022-11-05T08:17:05.938Z,95630.09
2022-11-05T08:19:35.327Z,95627.97
2022-11-05T08:22:04.895Z,95633.16
2022-11-05T08:24:35.711Z,95629.81
2022-11-05T08:27:05.246Z,95632.81
2022-11-05T08:29:34.862Z,95634.91
2022-11-05T08:32:04.504Z,95637.66
2022-11-05T08:34:34.132Z,95638.16
2022-11-05T08:37:03.666Z,95634.41
2022-11-05T08:39:33.161Z,95636.84
2022-11-05T08:42:04.048Z,95634.31
2022-11-05T08:44:33.623Z,95632.56
2022-11-05T08:47:03.009Z,95635.75
2022-11-05T08:49:32.438Z,95631.53
2022-11-05T08:52:01.819Z,95633.13
2022-11-05T08:54:31.242Z,95633.78
2022-11-05T08:57:00.606Z,95636.13
2022-11-05T08:59:31.454Z,95633.22
2022-11-05T09:02:00.929Z,95639.88
2022-11-05T09:04:30.522Z,95640.94
2022-11-05T09:06:59.987Z,95636.06
2022-11-05T09:09:29.593Z,95637.69
2022-11-05T09:12:11.628Z,95639.47
2022-11-05T09:14:43.410Z,95638.66
2022-11-05T09:17:19.059Z,95641.34
2022-11-05T09:19:49.438Z,95642.72
2022-11-05T09:22:19.177Z,95644.41
2022-11-05T09:24:48.789Z,95644.16
2022-11-05T09:27:18.922Z,95645.28
2022-11-05T09:29:49.646Z,95651.28
2022-11-05T09:32:20.943Z,95653.03
2022-11-05T09:34:50.648Z,95647.72
2022-11-05T09:37:20.098Z,95642.69
2022-11-05T09:39:49.555Z,95647.59
2022-11-05T09:42:20.781Z,95644.97
2022-11-05T09:44:56.178Z,95655.00
2022-11-05T09:47:32.366Z,95655.81
2022-11-05T09:50:08.635Z,95658.88
2022-11-05T09:52:38.143Z,95658.31
2022-11-05T09:55:22.210Z,95663.16
2022-11-05T09:57:58.623Z,95665.53
2022-11-05T10:00:31.543Z,95659.91
2022-11-05T10:03:08.202Z,95670.16
2022-11-05T10:05:40.004Z,95670.44
2022-11-05T10:08:17.291Z,95673.16
2022-11-05T10:10:51.712Z,95674.38
2022-11-05T10:13:29.165Z,95678.00
2022-11-05T10:16:06.283Z,95678.38
2022-11-05T10:18:40.374Z,95688.09
2022-11-05T10:21:32.328Z,95674.22
2022-11-05T10:24:18.051Z,95676.47
2022-11-05T10:26:50.725Z,95682.75
2022-11-05T10:29:29.196Z,95682.25
2022-11-05T10:32:05.420Z,95683.25
2022-11-05T10:34:39.445Z,95694.81
2022-11-05T10:37:09.863Z,95691.53
2022-11-05T10:39:39.435Z,95700.88
2022-11-05T10:42:34.871Z,95692.47
2022-11-05T10:45:25.631Z,95692.53
2022-11-05T10:48:45.750Z,95694.53
2022-11-05T10:51:16.089Z,95697.56
2022-11-05T10:54:00.492Z,95691.75
2022-11-05T10:56:37.802Z,95691.56
2022-11-05T10:59:22.439Z,95690.28
2022-11-05T11:02:01.004Z,95689.69
2022-11-05T11:04:37.646Z,95690.78
2022-11-05T11:07:20.682Z,95700.53
2022-11-05T11:09:51.538Z,95703.47
2022-11-05T11:12:27.485Z,95705.91
2022-11-05T11:15:03.528Z,95707.31
2022-11-05T11:17:33.955Z,95718.31
2022-11-05T11:20:33.418Z,95716.06
2022-11-05T11:23:14.532Z,95717.44
2022-11-05T11:25:51.951Z,95714.66
2022-11-05T11:28:26.435Z,95719.09
2022-11-05T11:31:06.866Z,95724.41
2022-11-05T11:33:38.291Z,95714.72
2022-11-05T11:36:13.103Z,95711.13
2022-11-05T11:38:42.772Z,95707.06
2022-11-05T11:41:26.799Z,95714.88
2022-11-05T11:44:04.453Z,95717.19
2022-11-05T11:46:36.438Z,95714.50
2022-11-05T11:49:08.211Z,95721.97
2022-11-05T11:51:49.531Z,95728.41
2022-11-05T11:54:25.936Z,95730.28
2022-11-05T11:56:58.301Z,95724.47
2022-11-05T12:00:01.973Z,95732.34
2022-11-05T12:02:53.913Z,95731.09
2022-11-05T12:05:56.597Z,95730.09
2022-11-05T12:08:52.269Z,95737.44
2022-11-05T12:11:35.886Z,95735.63
2022-11-05T12:14:17.053Z,95725.69
2022-11-05T12:17:24.011Z,95726.19
2022-11-05T12:20:21.402Z,95728.22
2022-11-05T12:23:28.508Z,95735.16
2022-11-05T12:26:10.493Z,95732.38
2022-11-05T12:29:21.463Z,95729.59
2022-11-05T12:32:21.425Z,95730.66
2022-11-05T12:35:09.275Z,95737.84
2022-11-05T12:37:50.099Z,95736.84
2022-11-05T12:40:45.047Z,95747.25
2022-11-05T12:43:32.096Z,95752.31
2022-11-05T12:46:18.900Z,95745.38
2022-11-05T12:49:46.539Z,95740.00
2022-11-05T12:52:49.050Z,95744.31
2022-11-05T12:55:23.503Z,95747.56
2022-11-05T12:57:58.533Z,95746.19
2022-11-05T13:00:31.398Z,95747.88
2022-11-05T13:03:23.234Z,95750.75
2022-11-05T13:06:05.408Z,95760.97
2022-11-05T13:08:42.504Z,95753.91
2022-11-05T13:11:25.330Z,95751.16
2022-11-05T13:14:07.379Z,95755.22
2022-11-05T13:16:43.201Z,95763.47
2022-11-05T13:19:21.381Z,95764.53
2022-11-05T13:22:00.801Z,95764.72
2022-11-05T13:24:37.525Z,95762.78
2022-11-05T13:27:42.076Z,95766.44
2022-11-05T13:30:18.939Z,95765.97
2022-11-05T13:32:58.601Z,95769.06
2022-11-05T13:35:33.150Z,95761.34
2022-11-05T13:38:28.121Z,95760.44
2022-11-05T13:41:21.147Z,95765.06
2022-11-05T13:44:18.355Z,95765.13
2022-11-05T13:47:22.176Z,95757.66
2022-11-05T13:50:44.935Z,95766.59
2022-11-05T13:54:00.953Z,95766.91
2022-11-05T13:56:56.564Z,95763.41
2022-11-05T13:59:56.847Z,95767.16
2022-11-05T14:02:30.580Z,95770.16
2022-11-05T14:05:02.580Z,95772.84
2022-11-05T14:07:38.232Z,95775.78
2022-11-05T14:10:22.391Z,95774.97
2022-11-05T14:12:55.154Z,95776.59
2022-11-05T14:15:28.212Z,95778.06
2022-11-05T14:18:01.864Z,95776.53
2022-11-05T14:21:00.213Z,95781.09
2022-11-05T14:23:54.052Z,95779.28
2022-11-05T14:26:26.575Z,95780.66
2022-11-05T14:29:25.658Z,95780.72
2022-11-05T14:32:09.314Z,95789.00
2022-11-05T14:34:51.630Z,95786.00
2022-11-05T14:37:37.493Z,95793.69
2022-11-05T14:40:37.456Z,95783.41
2022-11-05T14:43:20.146Z,95790.28
2022-11-05T14:46:00.536Z,95791.53
2022-11-05T14:48:43.332Z,95796.00
2022-11-05T14:51:29.830Z,95797.63
2022-11-05T14:54:04.358Z,95794.63
2022-11-05T14:56:50.554Z,95799.50
2022-11-05T15:00:02.911Z,95804.84
2022-11-05T15:02:38.418Z,95799.25
2022-11-05T15:05:41.501Z,95807.03
2022-11-05T15:08:36.017Z,95804.13
2022-11-05T15:11:17.229Z,95813.72
2022-11-05T15:14:05.013Z,95812.00
2022-11-05T15:16:42.106Z,95819.41
2022-11-05T15:19:23.243Z,95812.69
2022-11-05T15:21:55.584Z,95821.56
2022-11-05T15:24:28.100Z,95826.59
2022-11-05T15:27:05.887Z,95833.56
2022-11-05T15:29:36.748Z,95825.44
2022-11-05T15:32:07.035Z,95831.53
2022-11-05T15:34:36.713Z,95839.59
2022-11-05T15:37:24.527Z,95835.53
2022-11-05T15:39:56.352Z,95836.50
2022-11-05T15:42:27.952Z,95841.84
2022-11-05T15:45:01.071Z,95845.59
2022-11-05T15:47:34.011Z,95841.59
2022-11-05T15:50:14.955Z,95844.63
2022-11-05T15:52:53.180Z,95853.47
2022-11-05T15:55:26.704Z,95852.75
2022-11-05T15:58:02.476Z,95860.44
2022-11-05T16:00:37.127Z,95860.44
2022-11-05T16:03:16.068Z,95856.66
2022-11-05T16:05:49.396Z,95863.94
2022-11-05T16:08:22.474Z,95862.22
2022-11-05T16:10:57.076Z,95868.75
2022-11-05T16:13:35.471Z,95869.38
2022-11-05T16:16:24.573Z,95869.38
2022-11-05T16:18:54.109Z,95871.00
2022-11-05T16:21:23.684Z,95875.44
2022-11-05T16:23:58.965Z,95880.00
2022-11-05T16:29:34.184Z,95878.25
2022-11-05T16:32:15.680Z,95886.28
2022-11-05T16:34:50.865Z,95891.28
2022-11-05T16:37:25.955Z,95889.06
2022-11-05T16:39:56.641Z,95898.16
2022-11-05T16:42:41.922Z,95903.50
2022-11-05T16:45:14.793Z,95909.66
2022-11-05T16:47:46.732Z,95910.97
2022-11-05T16:50:27.611Z,95912.56
2022-11-05T16:52:57.112Z,95912.81
2022-11-05T16:55:26.594Z,95922.94
2022-11-05T16:57:59.135Z,95921.09
2022-11-05T17:00:28.628Z,95917.03
2022-11-05T17:02:59.432Z,95918.66
2022-11-05T17:05:31.737Z,95929.56
2022-11-05T17:08:03.376Z,95925.50
2022-11-05T17:10:32.751Z,95921.78
2022-11-05T17:13:02.136Z,95939.47
2022-11-05T17:15:35.503Z,95927.13
2022-11-05T17:18:07.216Z,95939.22
2022-11-05T17:20:41.517Z,95938.06
2022-11-05T17:23:13.634Z,95940.16
2022-11-05T17:25:47.465Z,95939.09
2022-11-05T17:28:17.586Z,95937.81
2022-11-05T17:30:53.000Z,95940.84
2022-11-05T17:33:24.543Z,95949.44
2022-11-05T17:35:54.703Z,95949.44
2022-11-05T17:38:26.970Z,95956.09
2022-11-05T17:40:56.357Z,95955.16
2022-11-05T17:43:26.066Z,95954.69
2022-11-05T17:45:59.982Z,95952.25
2022-11-05T17:48:34.015Z,95951.19
2022-11-05T17:51:03.425Z,95956.53
2022-11-05T17:53:32.974Z,95957.59
2022-11-05T17:56:02.422Z,95958.41
2022-11-05T17:58:31.796Z,95953.88
2022-11-05T18:01:01.313Z,95962.34
2022-11-05T18:03:30.794Z,95961.78
2022-11-05T18:06:05.628Z,95966.53
2022-11-05T18:08:35.104Z,95967.59
2022-11-05T18:11:04.544Z,95975.25
2022-11-05T18:13:33.935Z,95983.75
2022-11-05T18:16:03.326Z,95987.47
2022-11-05T18:18:32.724Z,95978.84
2022-11-05T18:21:03.506Z,95984.19
2022-11-05T18:23:33.008Z,95992.22
2022-11-05T18:26:05.533Z,95991.16
2022-11-05T18:28:34.879Z,96000.25
2022-11-05T18:31:08.222Z,95989.53
2022-11-05T18:33:37.839Z,95986.63
2022-11-05T18:36:10.288Z,95987.22
2022-11-05T18:38:39.700Z,95986.41
2022-11-05T18:41:09.241Z,95990.94
2022-11-05T18:43:38.647Z,95996.06
2022-11-05T18:46:08.651Z,95990.34
2022-11-05T18:48:38.717Z,95994.56
2022-11-05T18:51:16.438Z,95990.72
2022-11-05T18:53:45.868Z,95991.66
2022-11-05T18:56:19.043Z,95984.53
2022-11-05T18:58:49.201Z,95987.09
2022-11-05T19:01:23.992Z,95986.41
2022-11-05T19:03:55.004Z,95992.44
2022-11-05T19:06:26.291Z,95986.34
2022-11-05T19:08:57.633Z,95982.13
2022-11-05T19:11:28.116Z,95982.25
2022-11-05T19:13:57.612Z,95988.06
2022-11-05T19:16:30.887Z,95993.03
2022-11-05T19:19:01.438Z,95989.63
2022-11-05T19:21:33.145Z,95995.22
2022-11-05T19:24:05.902Z,95996.63
2022-11-05T19:26:35.393Z,96001.38
2022-11-05T19:29:05.426Z,96009.00
2022-11-05T19:31:35.393Z,96012.13
2022-11-05T19:34:05.487Z,96005.16
2022-11-05T19:36:36.527Z,96012.00
2022-11-05T19:39:10.957Z,96006.31
2022-11-05T19:41:40.506Z,96019.44
2022-11-05T19:44:10.108Z,96013.50
2022-11-05T19:46:39.526Z,96019.28
2022-11-05T19:49:08.967Z,96019.75
2022-11-05T19:51:40.731Z,96011.97
2022-11-05T19:54:10.630Z,96017.28
2022-11-05T19:56:40.080Z,96012.19
2022-11-05T19:59:09.613Z,96006.41
2022-11-05T20:01:40.336Z,96005.00
2022-11-05T20:04:11.911Z,96004.41
2022-11-05T20:06:42.869Z,96007.06
2022-11-05T20:09:21.578Z,96004.84
2022-11-05T20:11:54.493Z,96000.78
2022-11-05T20:14:26.511Z,96004.25
2022-11-05T20:16:56.261Z,96002.41
2022-11-05T20:19:25.796Z,96000.31
2022-11-05T20:22:00.142Z,95998.47
2022-11-05T20:24:29.640Z,96005.66
2022-11-05T20:26:59.307Z,96004.03
2022-11-05T20:29:34.984Z,96010.03
2022-11-05T20:32:06.355Z,96012.34
2022-11-05T20:34:36.271Z,96013.25
2022-11-05T20:37:07.095Z,96016.00
2022-11-05T20:39:36.513Z,96015.41
2022-11-05T20:42:06.235Z,96017.03
2022-11-05T20:44:35.616Z,96021.94
2022-11-05T20:47:05.391Z,96026.00
2022-11-05T20:49:34.836Z,96018.97
2022-11-05T20:52:04.333Z,96029.53
2022-11-05T20:54:35.074Z,96023.16
2022-11-05T20:57:05.216Z,96027.81
2022-11-05T20:59:34.792Z,96027.38
2022-11-05T21:02:04.377Z,96025.53
2022-11-05T21:04:34.019Z,96023.66
2022-11-05T21:07:03.425Z,96025.06
2022-11-05T21:09:34.203Z,96027.75
2022-11-05T21:12:13.027Z,96028.56
2022-11-05T21:14:44.461Z,96026.72
2022-11-05T21:17:14.465Z,96031.81
2022-11-05T21:19:44.031Z,96023.81
2022-11-05T21:22:15.907Z,96027.53
2022-11-05T21:24:46.927Z,96028.78
2022-11-05T21:27:16.359Z,96016.34
2022-11-05T21:29:45.731Z,96031.16
2022-11-05T21:32:15.275Z,96033.13
2022-11-05T21:34:44.733Z,96030.31
2022-11-05T21:37:14.277Z,96036.75
2022-11-05T21:39:44.027Z,96028.44
2022-11-05T21:42:14.827Z,96032.84
2022-11-05T21:44:44.475Z,96023.88
2022-11-05T21:47:14.471Z,96027.63
2022-11-05T21:49:43.901Z,96035.47
2022-11-05T21:52:31.091Z,96034.97
2022-11-05T21:55:17.927Z,96036.28
2022-11-05T21:58:06.799Z,96026.72
2022-11-05T22:00:36.188Z,96019.81
2022-11-05T22:03:05.684Z,96034.25
2022-11-05T22:05:35.148Z,96030.00
2022-11-05T22:08:04.760Z,96032.50
2022-11-05T22:10:34.183Z,96029.06
2022-11-05T22:13:05.067Z,96032.63
2022-11-05T22:15:34.462Z,96040.44
2022-11-05T22:18:04.080Z,96041.91
2022-11-05T22:20:33.535Z,96037.81
2022-11-05T22:23:04.531Z,96039.28
2022-11-05T22:25:37.786Z,96040.09
2022-11-05T22:28:08.559Z,96034.34
2022-11-05T22:30:38.007Z,96042.94
2022-11-05T22:33:07.455Z,96039.03
2022-11-05T22:35:39.890Z,96039.19
2022-11-05T22:38:09.803Z,96040.63
2022-11-05T22:40:39.742Z,96036.72
2022-11-05T22:43:10.494Z,96033.22
2022-11-05T22:45:39.886Z,96029.38
2022-11-05T22:48:09.533Z,96035.34
2022-11-05T22:50:39.388Z,96034.34
2022-11-05T22:53:09.089Z,96042.38
2022-11-05T22:55:40.476Z,96045.72
2022-11-05T22:58:11.499Z,96028.97
2022-11-05T23:00:41.088Z,96030.03
2022-11-05T23:03:10.676Z,96031.47
2022-11-05T23:05:40.143Z,96033.16
2022-11-05T23:08:28.724Z,96032.78
2022-11-05T23:11:16.273Z,96025.44
2022-11-05T23:13:47.054Z,96023.84
2022-11-05T23:16:33.886Z,96015.06
2022-11-05T23:19:20.839Z,96014.28
2022-11-05T23:22:07.829Z,96013.31
2022-11-05T23:24:37.193Z,96011.09
2022-11-05T23:27:06.692Z,96008.06
2022-11-05T23:29:37.700Z,96009.16
2022-11-05T23:32:25.652Z,96024.09
2022-11-05T23:34:57.508Z,96022.25
2022-11-05T23:37:49.834Z,96017.38
2022-11-05T23:40:24.803Z,96021.66
2022-11-05T23:43:12.311Z,96030.09
2022-11-05T23:46:03.400Z,96023.97
2022-11-05T23:48:36.084Z,96022.34
2022-11-05T23:51:12.216Z,96025.22
2022-11-05T23:53:42.948Z,96029.09
2022-11-05T23:56:15.816Z,96030.94
2022-11-05T23:58:45.477Z,96031.53
